Portada
METAR-TAF:

METAR-TAF

Aeroports :

Sukkur, Pakistan

latitud: 27-43-19N, longitud: 068-47-31E, altitud: 60 m

Observació

L'informe es va fer fa 1 hora i 9 minuts, a les 11:00 UTC
Vent 4 kt del Nord
Temperatura 30°C
Humitat 31%
Pressió 1015 hPa
Visibilitat: 5000 m
calitja

METAR: OPSK 171100Z 36004KT 5000 HZ NSC 30/11 Q1015 NOSIG

Hora: 17:09 (12:09 UTC)

Pronòstic

L'informe es va fer fa 2 hores i 39 minuts, a les 09:30 UTC
Pronòstic vàlid del 17 a les 12 UTC al 18 a les 12 UTC
Vent 7 kt del Nord-Est
Visibilitat: 4000 m
calitja
A partir de les 17 a les 1900 UTC
Vent 5 kt del Nord/Nord-Est
Visibilitat: 3000 m
calitja
Temporalment
l' 18 a les 00 UTC al 18 a les 04 UTC
Vent kt del Nord
Visibilitat: 1000 m
boirina
A partir de les 18 a les 0700 UTC
Vent 10 kt del Sud/Sud-Est
Visibilitat: 4000 m
calitja

TAF: OPSK 170930Z 1712/1812 05007KT 4000 HZ NSC FM171900 03005KT 3000 HZ NSC TEMPO 1800/1804 00000KT 1000 BR NSC FM180700 16010KT 4000 HZ NSC

Observacions i pronòstics meteorològics de més de 4000 aeroports (METAR i TAF).

Les estacions disponibles són els punts grocs i vermells al mapa.

Posi el ratolí al punt desitjat per veure el nom de l'estació.

Feu clic per veure les observacions i els pronòstics meteorològics.

Per canviar el mapa: feu clic els botons verds amb una creu de color negre per apropar; al botó verd amb un guió per allunyar la imatge; o en les fletxes verdes per a mapes adjacents.


METAR-TAF: